createdAt,value
2018-09-26T00:01:24.539Z,93.20
2018-09-26T00:03:56.102Z,92.10
2018-09-26T00:06:24.886Z,92.60
2018-09-26T00:08:53.688Z,92.10
2018-09-26T00:11:22.494Z,92.70
2018-09-26T00:13:51.291Z,92.80
2018-09-26T00:16:20.105Z,92.80
2018-09-26T00:18:48.918Z,94.00
2018-09-26T00:21:17.704Z,93.40
2018-09-26T00:23:46.510Z,92.70
2018-09-26T00:26:15.294Z,93.40
2018-09-26T00:28:44.152Z,92.70
2018-09-26T00:31:12.947Z,93.50
2018-09-26T00:33:41.727Z,93.40
2018-09-26T00:36:10.613Z,93.30
2018-09-26T00:38:39.418Z,92.90
2018-09-26T00:41:08.191Z,93.10
2018-09-26T00:43:37.018Z,93.20
2018-09-26T00:46:06.415Z,93.40
2018-09-26T00:48:35.250Z,93.60
2018-09-26T00:51:04.416Z,93.20
2018-09-26T00:53:33.207Z,93.20
2018-09-26T00:56:02.319Z,93.80
2018-09-26T00:58:43.223Z,93.60
2018-09-26T01:01:12.168Z,93.90
2018-09-26T01:03:41.007Z,94.00
2018-09-26T01:06:09.818Z,93.40
2018-09-26T01:08:38.671Z,94.10
2018-09-26T01:11:07.611Z,93.40
2018-09-26T01:13:36.467Z,93.40
2018-09-26T01:16:05.406Z,93.50
2018-09-26T01:18:34.271Z,93.30
2018-09-26T01:21:03.113Z,93.80
2018-09-26T01:23:31.927Z,94.60
2018-09-26T01:26:00.748Z,93.60
2018-09-26T01:28:29.614Z,93.80
2018-09-26T01:30:58.458Z,94.10
2018-09-26T01:33:27.416Z,94.40
2018-09-26T01:35:56.203Z,94.40
2018-09-26T01:38:25.015Z,93.90
2018-09-26T01:40:53.806Z,94.30
2018-09-26T01:43:22.589Z,94.70
2018-09-26T01:45:51.378Z,94.10
2018-09-26T01:48:20.254Z,94.30
2018-09-26T01:50:49.074Z,94.40
2018-09-26T01:53:17.867Z,94.30
2018-09-26T01:55:46.716Z,94.30
2018-09-26T01:58:15.583Z,94.10
2018-09-26T02:00:44.396Z,94.50
2018-09-26T02:03:13.242Z,94.30
2018-09-26T02:05:42.026Z,94.50
2018-09-26T02:08:10.944Z,94.90
2018-09-26T02:10:39.751Z,93.80
2018-09-26T02:13:08.586Z,94.60
2018-09-26T02:15:37.399Z,94.40
2018-09-26T02:18:06.379Z,94.60
2018-09-26T02:20:35.211Z,94.30
2018-09-26T02:23:04.051Z,93.60
2018-09-26T02:25:32.938Z,94.70
2018-09-26T02:28:01.854Z,94.20
2018-09-26T02:30:30.667Z,94.50
2018-09-26T02:32:59.454Z,94.60
2018-09-26T02:35:28.291Z,95.20
2018-09-26T02:37:57.214Z,94.40
2018-09-26T02:40:26.075Z,94.60
2018-09-26T02:42:54.898Z,95.40
2018-09-26T02:45:23.808Z,94.80
2018-09-26T02:47:52.666Z,94.50
2018-09-26T02:50:21.480Z,94.90
2018-09-26T02:52:50.467Z,94.70
2018-09-26T02:55:19.259Z,94.80
2018-09-26T02:57:48.151Z,94.80
2018-09-26T03:00:18.307Z,95.00
2018-09-26T03:02:47.326Z,95.00
2018-09-26T03:05:16.114Z,94.70
2018-09-26T03:07:45.037Z,95.20
2018-09-26T03:10:13.942Z,95.20
2018-09-26T03:12:42.774Z,94.80
2018-09-26T03:15:11.611Z,94.70
2018-09-26T03:17:40.530Z,95.00
2018-09-26T03:20:09.422Z,94.40
2018-09-26T03:22:38.276Z,95.00
2018-09-26T03:25:07.271Z,95.20
2018-09-26T03:27:36.162Z,94.90
2018-09-26T03:30:05.084Z,94.80
2018-09-26T03:32:33.898Z,94.90
2018-09-26T03:35:02.737Z,94.90
2018-09-26T03:37:31.871Z,94.70
2018-09-26T03:40:00.683Z,94.50
2018-09-26T03:42:29.486Z,94.80
2018-09-26T03:44:58.284Z,95.00
2018-09-26T03:47:27.287Z,95.00
2018-09-26T03:49:56.083Z,94.90
2018-09-26T03:52:24.874Z,95.10
2018-09-26T03:54:53.698Z,94.70
2018-09-26T03:57:22.510Z,94.80
2018-09-26T03:59:51.331Z,95.30
2018-09-26T04:02:20.126Z,95.50
2018-09-26T04:04:48.985Z,95.40
2018-09-26T04:07:17.879Z,94.80
2018-09-26T04:09:46.712Z,95.00
2018-09-26T04:12:15.523Z,94.50
2018-09-26T04:14:44.315Z,94.80
2018-09-26T04:17:13.148Z,94.90
2018-09-26T04:19:42.132Z,95.30
2018-09-26T04:22:10.985Z,94.70
2018-09-26T04:24:39.787Z,95.00
2018-09-26T04:27:08.657Z,95.10
2018-09-26T04:29:37.451Z,95.10
2018-09-26T04:32:06.347Z,94.50
2018-09-26T04:34:35.178Z,95.20
2018-09-26T04:37:04.139Z,94.50
2018-09-26T04:39:32.954Z,94.60
2018-09-26T04:42:01.828Z,95.30
2018-09-26T04:44:30.630Z,94.30
2018-09-26T04:46:59.688Z,94.40
2018-09-26T04:49:28.510Z,95.60
2018-09-26T04:51:57.310Z,94.40
2018-09-26T04:54:26.139Z,96.00
2018-09-26T04:56:55.840Z,95.70
2018-09-26T04:59:29.827Z,95.80
2018-09-26T05:01:58.641Z,95.70
2018-09-26T05:04:27.501Z,95.50
2018-09-26T05:06:56.406Z,94.90
2018-09-26T05:09:25.206Z,95.50
2018-09-26T05:11:54.011Z,95.60
2018-09-26T05:14:22.835Z,94.90
2018-09-26T05:16:51.751Z,95.30
2018-09-26T05:19:20.553Z,94.70
2018-09-26T05:21:49.370Z,95.30
2018-09-26T05:24:18.143Z,95.20
2018-09-26T05:26:47.364Z,94.80
2018-09-26T05:29:16.178Z,94.30
2018-09-26T05:31:44.987Z,94.80
2018-09-26T05:34:13.799Z,94.90
2018-09-26T05:36:42.683Z,94.80
2018-09-26T05:39:12.136Z,94.50
2018-09-26T05:41:41.007Z,95.20
2018-09-26T05:44:09.795Z,94.80
2018-09-26T05:46:38.754Z,94.40
2018-09-26T05:49:07.582Z,95.20
2018-09-26T05:51:36.384Z,94.50
2018-09-26T05:54:05.204Z,94.50
2018-09-26T05:56:34.107Z,94.90
2018-09-26T05:59:03.035Z,94.50
2018-09-26T06:01:31.895Z,94.40
2018-09-26T06:04:00.686Z,95.00
2018-09-26T06:06:29.524Z,94.80
2018-09-26T06:08:58.353Z,94.70
2018-09-26T06:11:27.174Z,94.50
2018-09-26T06:13:56.056Z,94.10
2018-09-26T06:16:24.854Z,94.60
2018-09-26T06:18:53.695Z,94.10
2018-09-26T06:21:22.484Z,94.60
2018-09-26T06:23:51.307Z,93.90
2018-09-26T06:26:20.111Z,94.50
2018-09-26T06:28:48.962Z,94.60
2018-09-26T06:31:17.811Z,95.10
2018-09-26T06:33:46.778Z,93.00
2018-09-26T06:36:15.715Z,93.60
2018-09-26T06:38:44.527Z,94.30
2018-09-26T06:41:13.347Z,93.80
2018-09-26T06:43:42.136Z,93.70
2018-09-26T06:46:10.959Z,94.50
2018-09-26T06:48:39.939Z,93.70
2018-09-26T06:51:08.779Z,93.80
2018-09-26T06:53:37.575Z,93.80
2018-09-26T06:56:06.463Z,93.40
2018-09-26T06:58:35.311Z,93.30
2018-09-26T07:01:04.143Z,93.80
2018-09-26T07:03:32.947Z,93.50
2018-09-26T07:06:01.755Z,93.40
2018-09-26T07:08:30.611Z,91.70
2018-09-26T07:10:59.424Z,93.30
2018-09-26T07:13:28.245Z,93.40
2018-09-26T07:15:57.062Z,92.20
2018-09-26T07:18:25.995Z,93.20
2018-09-26T07:20:54.809Z,93.10
2018-09-26T07:23:23.719Z,93.50
2018-09-26T07:25:52.522Z,93.90
2018-09-26T07:28:21.415Z,92.90
2018-09-26T07:30:53.254Z,92.70
2018-09-26T07:33:22.035Z,93.50
2018-09-26T07:35:50.843Z,92.70
2018-09-26T07:38:19.763Z,92.90
2018-09-26T07:40:48.899Z,93.20
2018-09-26T07:43:17.734Z,93.10
2018-09-26T07:45:46.710Z,92.70
2018-09-26T07:48:15.550Z,92.30
2018-09-26T07:50:44.434Z,92.50
2018-09-26T07:53:13.306Z,90.20
2018-09-26T07:55:42.082Z,92.20
2018-09-26T07:58:10.987Z,89.30
2018-09-26T08:00:39.827Z,92.10
2018-09-26T08:03:08.762Z,91.70
2018-09-26T08:05:37.601Z,90.60
2018-09-26T08:08:06.415Z,91.40
2018-09-26T08:10:35.248Z,91.50
2018-09-26T08:13:04.071Z,90.60
2018-09-26T08:15:32.879Z,84.30
2018-09-26T08:18:01.797Z,90.80
2018-09-26T08:20:30.639Z,91.70
2018-09-26T08:22:59.447Z,91.20
2018-09-26T08:25:28.263Z,90.30
2018-09-26T08:27:57.075Z,91.20
2018-09-26T08:30:25.885Z,89.90
2018-09-26T08:32:54.702Z,90.50
2018-09-26T08:35:23.862Z,88.60
2018-09-26T08:37:52.727Z,90.70
2018-09-26T08:40:21.943Z,90.40
2018-09-26T08:42:50.764Z,90.30
2018-09-26T08:45:20.142Z,91.90
2018-09-26T08:47:49.116Z,84.30
2018-09-26T08:50:17.906Z,90.50
2018-09-26T08:52:46.690Z,91.90
2018-09-26T08:55:15.502Z,88.40
2018-09-26T08:57:44.327Z,90.90
2018-09-26T09:00:17.469Z,91.40
2018-09-26T09:02:46.506Z,90.10
2018-09-26T09:05:15.348Z,90.30
2018-09-26T09:07:44.175Z,88.90
2018-09-26T09:10:13.047Z,86.10
2018-09-26T09:12:41.839Z,87.20
2018-09-26T09:15:10.626Z,83.00
2018-09-26T09:17:39.551Z,87.70
2018-09-26T09:20:08.349Z,80.10
2018-09-26T09:22:37.235Z,88.70
2018-09-26T09:25:06.107Z,79.10
2018-09-26T09:27:34.925Z,79.70
2018-09-26T09:30:03.907Z,89.70
2018-09-26T09:32:39.456Z,85.90
2018-09-26T09:35:08.326Z,84.40
2018-09-26T09:37:37.194Z,88.60
2018-09-26T09:40:06.051Z,84.10
2018-09-26T09:42:34.881Z,86.20
2018-09-26T09:45:03.722Z,82.70
2018-09-26T09:47:32.610Z,87.60
2018-09-26T09:50:01.434Z,86.50
2018-09-26T09:52:30.262Z,83.80
2018-09-26T09:54:59.071Z,85.50
2018-09-26T09:57:27.946Z,80.20
2018-09-26T09:59:56.851Z,87.00
2018-09-26T10:02:25.744Z,81.10
2018-09-26T10:04:54.505Z,83.20
2018-09-26T10:07:23.326Z,90.40
2018-09-26T10:09:52.159Z,82.20
2018-09-26T10:12:20.970Z,77.40
2018-09-26T10:14:49.759Z,83.90
2018-09-26T10:17:18.610Z,79.70
2018-09-26T10:19:47.422Z,87.20
2018-09-26T10:22:16.259Z,86.20
2018-09-26T10:24:45.075Z,74.00
2018-09-26T10:27:13.947Z,81.00
2018-09-26T10:29:42.778Z,81.80
2018-09-26T10:32:11.699Z,84.20
2018-09-26T10:34:40.474Z,82.50
2018-09-26T10:37:09.303Z,77.40
2018-09-26T10:39:38.138Z,77.90
2018-09-26T10:42:07.030Z,83.30
2018-09-26T10:44:35.879Z,76.50
2018-09-26T10:47:04.788Z,81.50
2018-09-26T10:49:33.594Z,78.20
2018-09-26T10:52:02.422Z,74.60
2018-09-26T10:54:31.213Z,71.60
2018-09-26T10:57:00.104Z,74.50
2018-09-26T10:59:31.234Z,71.40
2018-09-26T11:02:00.036Z,71.90
2018-09-26T11:04:28.836Z,70.20
2018-09-26T11:06:57.675Z,72.00
2018-09-26T11:09:26.499Z,75.10
2018-09-26T11:11:55.303Z,70.00
2018-09-26T11:14:24.151Z,70.60
2018-09-26T11:16:52.971Z,72.70
2018-09-26T11:19:21.791Z,68.50
2018-09-26T11:21:50.613Z,74.30
2018-09-26T11:24:19.415Z,66.70
2018-09-26T11:26:48.447Z,68.60
2018-09-26T11:29:17.246Z,69.70
2018-09-26T11:31:46.051Z,66.40
2018-09-26T11:34:14.877Z,72.10
2018-09-26T11:36:43.682Z,66.60
2018-09-26T11:39:12.543Z,60.60
2018-09-26T11:41:41.307Z,64.10
2018-09-26T11:44:10.158Z,64.70
2018-09-26T11:46:38.932Z,61.50
2018-09-26T11:49:07.787Z,63.70
2018-09-26T11:51:36.581Z,64.20
2018-09-26T11:54:05.111Z,59.40
2018-09-26T11:56:33.903Z,55.40
2018-09-26T11:59:02.755Z,57.30
2018-09-26T12:01:31.573Z,56.00
2018-09-26T12:04:00.379Z,56.70
2018-09-26T12:06:29.214Z,56.80
2018-09-26T12:08:58.006Z,60.10
2018-09-26T12:11:26.930Z,53.60
2018-09-26T12:13:55.810Z,55.80
2018-09-26T12:16:24.586Z,56.70
2018-09-26T12:18:53.412Z,55.20
2018-09-26T12:21:30.443Z,51.90
2018-09-26T12:23:51.062Z,54.90
2018-09-26T12:26:19.872Z,52.10
2018-09-26T12:28:48.680Z,53.40
2018-09-26T12:31:17.482Z,52.90
2018-09-26T12:33:46.398Z,54.30
2018-09-26T12:36:15.307Z,53.40
2018-09-26T12:38:44.111Z,51.30
2018-09-26T12:41:13.039Z,52.00
2018-09-26T12:43:42.753Z,53.80
2018-09-26T12:46:11.610Z,53.80
2018-09-26T12:48:40.425Z,51.30
2018-09-26T12:51:09.226Z,51.40
2018-09-26T12:53:38.114Z,52.50
2018-09-26T12:56:06.934Z,53.10
2018-09-26T12:58:35.768Z,54.70
2018-09-26T13:01:04.587Z,52.70
2018-09-26T13:03:33.381Z,54.20
2018-09-26T13:06:02.174Z,53.10
2018-09-26T13:08:31.036Z,52.20
2018-09-26T13:10:59.878Z,51.50
2018-09-26T13:13:28.695Z,53.60
2018-09-26T13:15:57.727Z,51.80
2018-09-26T13:18:26.645Z,50.70
2018-09-26T13:20:55.401Z,51.70
2018-09-26T13:23:24.195Z,50.20
2018-09-26T13:25:52.990Z,50.80
2018-09-26T13:28:21.842Z,50.00
2018-09-26T13:30:50.856Z,50.10
2018-09-26T13:33:19.639Z,50.70
2018-09-26T13:35:48.439Z,51.00
2018-09-26T13:38:17.299Z,48.20
2018-09-26T13:40:46.115Z,50.30
2018-09-26T13:43:14.914Z,52.40
2018-09-26T13:45:43.757Z,49.60
2018-09-26T13:48:12.708Z,49.30
2018-09-26T13:50:41.513Z,49.80
2018-09-26T13:53:10.339Z,47.70
2018-09-26T13:55:39.166Z,48.00
2018-09-26T13:58:08.011Z,51.90
2018-09-26T14:00:36.812Z,51.70
2018-09-26T14:03:05.639Z,52.40
2018-09-26T14:05:34.450Z,51.60
2018-09-26T14:08:03.282Z,49.70
2018-09-26T14:10:32.087Z,51.00
2018-09-26T14:13:00.895Z,52.90
2018-09-26T14:15:29.756Z,54.60
2018-09-26T14:17:58.619Z,54.40
2018-09-26T14:20:27.436Z,52.60
2018-09-26T14:22:56.400Z,52.00
2018-09-26T14:25:25.145Z,52.60
2018-09-26T14:27:53.986Z,51.60
2018-09-26T14:30:22.870Z,52.10
2018-09-26T14:32:51.595Z,54.90
2018-09-26T14:35:20.405Z,54.80
2018-09-26T14:37:49.382Z,56.10
2018-09-26T14:40:18.210Z,59.40
2018-09-26T14:42:47.019Z,55.60
2018-09-26T14:45:15.930Z,56.40
2018-09-26T14:47:44.796Z,59.00
2018-09-26T14:50:13.672Z,55.40
2018-09-26T14:52:42.518Z,57.20
2018-09-26T14:55:11.321Z,58.00
2018-09-26T14:57:40.134Z,58.40
2018-09-26T15:00:11.158Z,59.60
2018-09-26T15:02:40.278Z,57.10
2018-09-26T15:05:09.097Z,59.50
2018-09-26T15:07:38.062Z,58.20
2018-09-26T15:10:07.847Z,62.80
2018-09-26T15:12:36.680Z,59.90
2018-09-26T15:15:05.641Z,61.30
2018-09-26T15:17:34.555Z,61.40
2018-09-26T15:20:03.715Z,59.50
2018-09-26T15:22:32.543Z,59.70
2018-09-26T15:25:01.350Z,66.00
2018-09-26T15:27:30.208Z,65.30
2018-09-26T15:29:59.041Z,57.40
2018-09-26T15:32:27.953Z,65.70
2018-09-26T15:34:56.711Z,59.70
2018-09-26T15:37:25.585Z,58.70
2018-09-26T15:39:54.436Z,65.20
2018-09-26T15:42:23.317Z,62.80
2018-09-26T15:44:52.046Z,59.90
2018-09-26T15:47:20.946Z,59.10
2018-09-26T15:49:49.735Z,64.40
2018-09-26T15:52:18.549Z,67.50
2018-09-26T15:54:47.351Z,60.40
2018-09-26T15:57:16.211Z,64.10
2018-09-26T15:59:45.023Z,59.30
2018-09-26T16:02:13.946Z,66.50
2018-09-26T16:04:42.811Z,64.10
2018-09-26T16:07:11.618Z,74.00
2018-09-26T16:09:40.525Z,68.80
2018-09-26T16:12:09.343Z,76.30
2018-09-26T16:14:38.255Z,64.30
2018-09-26T16:17:07.109Z,75.00
2018-09-26T16:19:35.943Z,63.70
2018-09-26T16:22:04.880Z,66.20
2018-09-26T16:24:33.682Z,73.40
2018-09-26T16:27:02.654Z,72.50
2018-09-26T16:29:31.739Z,65.90
2018-09-26T16:32:00.619Z,69.40
2018-09-26T16:34:29.407Z,76.00
2018-09-26T16:36:58.239Z,76.00
2018-09-26T16:39:27.193Z,72.90
2018-09-26T16:41:55.947Z,75.00
2018-09-26T16:44:24.837Z,79.80
2018-09-26T16:46:53.694Z,79.50
2018-09-26T16:49:22.548Z,80.10
2018-09-26T16:51:51.386Z,81.80
2018-09-26T16:54:20.225Z,82.10
2018-09-26T16:56:50.111Z,83.70
2018-09-26T16:59:27.162Z,82.90
2018-09-26T17:01:56.011Z,82.80
2018-09-26T17:04:25.007Z,83.50
2018-09-26T17:06:53.784Z,84.50
2018-09-26T17:09:22.612Z,84.30
2018-09-26T17:11:51.431Z,84.50
2018-09-26T17:14:20.357Z,85.10
2018-09-26T17:16:49.209Z,86.10
2018-09-26T17:19:18.144Z,84.10
2018-09-26T17:21:46.907Z,85.90
2018-09-26T17:24:15.757Z,86.50
2018-09-26T17:26:44.580Z,87.30
2018-09-26T17:29:13.413Z,86.90
2018-09-26T17:31:42.276Z,86.50
2018-09-26T17:34:14.067Z,88.10
2018-09-26T17:36:43.440Z,87.60
2018-09-26T17:39:12.640Z,88.30
2018-09-26T17:41:42.264Z,88.20
2018-09-26T17:44:11.143Z,89.40
2018-09-26T17:46:40.123Z,90.00
2018-09-26T17:49:10.047Z,89.70
2018-09-26T17:51:39.017Z,89.70
2018-09-26T17:54:07.881Z,90.10
2018-09-26T17:56:37.259Z,89.70
2018-09-26T17:59:08.869Z,90.30
2018-09-26T18:01:38.111Z,91.10
2018-09-26T18:04:06.993Z,90.80
2018-09-26T18:06:35.818Z,90.60
2018-09-26T18:09:09.054Z,91.20
2018-09-26T18:11:37.851Z,91.60
2018-09-26T18:14:06.863Z,91.90
2018-09-26T18:16:36.355Z,91.80
2018-09-26T18:19:06.195Z,91.40
2018-09-26T18:21:35.835Z,91.20
2018-09-26T18:24:04.738Z,91.30
2018-09-26T18:26:33.575Z,92.20
2018-09-26T18:29:02.449Z,92.30
2018-09-26T18:31:31.327Z,91.80
2018-09-26T18:34:00.187Z,91.50
2018-09-26T18:36:29.038Z,92.40
2018-09-26T18:38:58.342Z,90.80
2018-09-26T18:41:27.119Z,92.80
2018-09-26T18:43:56.518Z,91.60
2018-09-26T18:46:25.452Z,91.60
2018-09-26T18:48:54.319Z,92.80
2018-09-26T18:51:24.146Z,92.40
2018-09-26T18:53:53.054Z,92.50
2018-09-26T18:56:21.892Z,91.70
2018-09-26T18:58:50.782Z,93.20
2018-09-26T19:01:19.598Z,92.90
2018-09-26T19:03:48.436Z,93.20
2018-09-26T19:06:17.864Z,92.50
2018-09-26T19:08:47.455Z,92.80
2018-09-26T19:11:16.341Z,92.50
2018-09-26T19:13:45.767Z,93.00
2018-09-26T19:16:14.607Z,92.60
2018-09-26T19:18:44.966Z,92.90
2018-09-26T19:21:13.886Z,93.30
2018-09-26T19:23:43.471Z,93.00
2018-09-26T19:26:12.900Z,92.90
2018-09-26T19:28:42.587Z,92.90
2018-09-26T19:31:11.702Z,93.00
2018-09-26T19:33:42.119Z,93.20
2018-09-26T19:36:11.304Z,93.20
2018-09-26T19:38:40.260Z,93.10
2018-09-26T19:41:09.100Z,93.50
2018-09-26T19:43:38.706Z,93.70
2018-09-26T19:46:07.580Z,93.90
2018-09-26T19:48:37.476Z,93.60
2018-09-26T19:51:06.418Z,93.80
2018-09-26T19:53:35.227Z,94.10
2018-09-26T19:56:05.071Z,94.10
2018-09-26T19:58:33.951Z,94.00
2018-09-26T20:01:02.786Z,94.10
2018-09-26T20:03:31.606Z,93.90
2018-09-26T20:06:01.455Z,93.90
2018-09-26T20:08:30.377Z,93.60
2018-09-26T20:10:59.236Z,93.50
2018-09-26T20:13:28.100Z,93.70
2018-09-26T20:15:57.289Z,93.90
2018-09-26T20:18:26.175Z,93.70
2018-09-26T20:20:55.000Z,93.90
2018-09-26T20:23:24.745Z,93.90
2018-09-26T20:25:53.454Z,94.20
2018-09-26T20:28:22.933Z,94.50
2018-09-26T20:30:51.790Z,93.80
2018-09-26T20:33:21.786Z,94.20
2018-09-26T20:35:50.691Z,94.30
2018-09-26T20:38:19.576Z,94.40
2018-09-26T20:40:48.902Z,94.30
2018-09-26T20:43:17.791Z,94.00
2018-09-26T20:45:46.628Z,94.60
2018-09-26T20:48:15.536Z,94.60
2018-09-26T20:50:44.384Z,94.90
2018-09-26T20:53:19.887Z,94.20
2018-09-26T20:55:48.711Z,95.10
2018-09-26T20:58:17.550Z,94.70
2018-09-26T21:00:46.379Z,94.70
2018-09-26T21:03:15.980Z,94.60
2018-09-26T21:05:44.842Z,94.20
2018-09-26T21:08:13.707Z,94.30
2018-09-26T21:10:42.527Z,94.80
2018-09-26T21:13:11.349Z,94.30
2018-09-26T21:15:40.135Z,94.80
2018-09-26T21:18:09.131Z,94.00
2018-09-26T21:20:37.992Z,94.20
2018-09-26T21:23:06.943Z,94.20
2018-09-26T21:25:35.752Z,94.40
2018-09-26T21:28:04.635Z,94.10
2018-09-26T21:30:33.415Z,94.10
2018-09-26T21:33:02.196Z,94.40
2018-09-26T21:35:31.098Z,94.30
2018-09-26T21:37:59.907Z,94.50
2018-09-26T21:40:29.520Z,94.60
2018-09-26T21:42:58.326Z,94.40
2018-09-26T21:45:27.127Z,94.90
2018-09-26T21:47:55.963Z,94.50
2018-09-26T21:50:24.783Z,94.80
2018-09-26T21:52:53.615Z,95.00
2018-09-26T21:55:22.438Z,94.70
2018-09-26T21:57:51.431Z,95.10
2018-09-26T22:00:22.053Z,95.20
2018-09-26T22:02:53.555Z,95.80
2018-09-26T22:05:22.360Z,95.20
2018-09-26T22:07:51.251Z,95.40
2018-09-26T22:10:20.059Z,95.10
2018-09-26T22:12:48.858Z,95.60
2018-09-26T22:15:21.631Z,95.40
2018-09-26T22:17:51.186Z,95.60
2018-09-26T22:20:19.987Z,95.30
2018-09-26T22:22:49.114Z,95.20
2018-09-26T22:25:18.062Z,95.40
2018-09-26T22:27:47.366Z,95.60
2018-09-26T22:30:16.172Z,95.60
2018-09-26T22:32:44.990Z,94.90
2018-09-26T22:35:13.810Z,96.00
2018-09-26T22:37:42.676Z,95.60
2018-09-26T22:40:11.507Z,96.00
2018-09-26T22:42:40.299Z,96.10
2018-09-26T22:45:09.110Z,95.80
2018-09-26T22:47:37.935Z,95.40
2018-09-26T22:50:06.756Z,95.90
2018-09-26T22:52:35.562Z,96.30
2018-09-26T22:55:04.442Z,95.80
2018-09-26T22:57:33.318Z,95.90
2018-09-26T23:00:02.172Z,95.90
2018-09-26T23:02:31.614Z,96.10
2018-09-26T23:05:00.412Z,95.90
2018-09-26T23:07:29.233Z,96.20
2018-09-26T23:09:58.051Z,96.40
2018-09-26T23:12:26.855Z,96.20
2018-09-26T23:14:55.658Z,96.10
2018-09-26T23:17:24.535Z,96.00
2018-09-26T23:19:53.340Z,96.60
2018-09-26T23:22:22.165Z,96.40
2018-09-26T23:24:50.966Z,96.10
2018-09-26T23:27:19.779Z,96.20
2018-09-26T23:29:48.595Z,96.30
2018-09-26T23:32:17.394Z,95.90
2018-09-26T23:34:46.215Z,96.10
2018-09-26T23:37:15.870Z,96.20
2018-09-26T23:39:44.703Z,96.00
2018-09-26T23:42:13.471Z,96.10
2018-09-26T23:44:42.272Z,96.10
2018-09-26T23:47:11.291Z,96.50
2018-09-26T23:49:40.081Z,96.50
2018-09-26T23:52:08.859Z,96.50
2018-09-26T23:54:37.731Z,96.80
2018-09-26T23:57:06.715Z,96.50
2018-09-26T23:59:35.527Z,96.80
